sensor_id;sensor_type;location;lat;lon;timestamp;pressure;altitude;pressure_sealevel;temperature;humidity
55675;BME280;41562;44.330;23.802;2023-03-19T00:00:53;101025.44;;;4.02;85.94
55675;BME280;41562;44.330;23.802;2023-03-19T00:03:20;101020.78;;;3.91;88.96
55675;BME280;41562;44.330;23.802;2023-03-19T00:05:52;101018.06;;;4.17;86.43
55675;BME280;41562;44.330;23.802;2023-03-19T00:08:20;101023.59;;;4.02;86.23
55675;BME280;41562;44.330;23.802;2023-03-19T00:10:48;101018.47;;;4.08;85.68
55675;BME280;41562;44.330;23.802;2023-03-19T00:13:15;101010.81;;;3.80;87.11
55675;BME280;41562;44.330;23.802;2023-03-19T00:15:44;101014.06;;;3.88;87.02
55675;BME280;41562;44.330;23.802;2023-03-19T00:18:12;101015.25;;;3.92;86.09
55675;BME280;41562;44.330;23.802;2023-03-19T00:20:40;101021.34;;;4.06;85.23
55675;BME280;41562;44.330;23.802;2023-03-19T00:23:07;101014.69;;;3.84;87.32
55675;BME280;41562;44.330;23.802;2023-03-19T00:25:35;101011.25;;;3.83;86.74
55675;BME280;41562;44.330;23.802;2023-03-19T00:28:03;101009.81;;;3.74;86.82
55675;BME280;41562;44.330;23.802;2023-03-19T00:30:30;101007.41;;;3.73;86.97
55675;BME280;41562;44.330;23.802;2023-03-19T00:33:00;101008.78;;;3.82;90.96
55675;BME280;41562;44.330;23.802;2023-03-19T00:35:28;101008.38;;;3.91;87.88
55675;BME280;41562;44.330;23.802;2023-03-19T00:37:56;101003.13;;;3.78;87.47
55675;BME280;41562;44.330;23.802;2023-03-19T00:40:23;101011.47;;;3.69;86.61
55675;BME280;41562;44.330;23.802;2023-03-19T00:42:51;101009.66;;;3.49;87.60
55675;BME280;41562;44.330;23.802;2023-03-19T00:45:19;100992.16;;;3.61;89.08
55675;BME280;41562;44.330;23.802;2023-03-19T00:47:49;100997.44;;;3.61;87.80
55675;BME280;41562;44.330;23.802;2023-03-19T00:50:16;100994.41;;;3.64;87.21
55675;BME280;41562;44.330;23.802;2023-03-19T00:52:44;100993.56;;;3.71;96.65
55675;BME280;41562;44.330;23.802;2023-03-19T00:55:11;100997.00;;;3.78;89.04
55675;BME280;41562;44.330;23.802;2023-03-19T00:57:38;100985.63;;;3.71;87.43
55675;BME280;41562;44.330;23.802;2023-03-19T01:00:07;100990.50;;;3.74;87.23
55675;BME280;41562;44.330;23.802;2023-03-19T01:02:34;100993.56;;;3.71;90.39
55675;BME280;41562;44.330;23.802;2023-03-19T01:05:02;100992.19;;;3.42;88.60
55675;BME280;41562;44.330;23.802;2023-03-19T01:07:29;100986.31;;;3.27;88.59
55675;BME280;41562;44.330;23.802;2023-03-19T01:09:56;101001.16;;;3.34;89.11
55675;BME280;41562;44.330;23.802;2023-03-19T01:12:25;100993.44;;;3.33;90.72
55675;BME280;41562;44.330;23.802;2023-03-19T01:14:52;101000.94;;;3.29;89.15
55675;BME280;41562;44.330;23.802;2023-03-19T01:17:20;100994.63;;;3.23;90.54
55675;BME280;41562;44.330;23.802;2023-03-19T01:19:48;101001.53;;;3.44;88.77
55675;BME280;41562;44.330;23.802;2023-03-19T01:22:16;101006.63;;;3.33;89.80
55675;BME280;41562;44.330;23.802;2023-03-19T01:24:43;101001.56;;;3.31;91.13
55675;BME280;41562;44.330;23.802;2023-03-19T01:27:11;101004.38;;;3.23;89.21
55675;BME280;41562;44.330;23.802;2023-03-19T01:29:38;100995.66;;;3.22;89.37
55675;BME280;41562;44.330;23.802;2023-03-19T01:32:06;101006.03;;;3.24;90.61
55675;BME280;41562;44.330;23.802;2023-03-19T01:34:33;101003.19;;;3.19;92.32
55675;BME280;41562;44.330;23.802;2023-03-19T01:37:00;100998.91;;;3.24;89.44
55675;BME280;41562;44.330;23.802;2023-03-19T01:39:31;100993.03;;;3.09;89.10
55675;BME280;41562;44.330;23.802;2023-03-19T01:42:02;100995.88;;;2.95;89.89
55675;BME280;41562;44.330;23.802;2023-03-19T01:44:35;101002.38;;;3.18;93.91
55675;BME280;41562;44.330;23.802;2023-03-19T01:47:05;100995.66;;;3.22;89.26
55675;BME280;41562;44.330;23.802;2023-03-19T01:49:34;100996.69;;;3.15;89.29
55675;BME280;41562;44.330;23.802;2023-03-19T01:52:03;100996.69;;;3.08;89.34
55675;BME280;41562;44.330;23.802;2023-03-19T01:54:32;100988.34;;;3.05;90.75
55675;BME280;41562;44.330;23.802;2023-03-19T01:57:06;100987.34;;;3.12;90.36
55675;BME280;41562;44.330;23.802;2023-03-19T01:59:40;100993.03;;;3.09;89.49
55675;BME280;41562;44.330;23.802;2023-03-19T02:02:21;100996.88;;;3.20;88.76
55675;BME280;41562;44.330;23.802;2023-03-19T02:04:55;100985.31;;;3.08;89.75
55675;BME280;41562;44.330;23.802;2023-03-19T02:07:24;100980.22;;;2.87;90.56
55675;BME280;41562;44.330;23.802;2023-03-19T02:09:52;100985.50;;;2.93;90.64
55675;BME280;41562;44.330;23.802;2023-03-19T02:12:20;100989.34;;;3.04;89.97
55675;BME280;41562;44.330;23.802;2023-03-19T02:14:47;100985.69;;;2.92;91.21
55675;BME280;41562;44.330;23.802;2023-03-19T02:17:15;100981.84;;;2.94;91.08
55675;BME280;41562;44.330;23.802;2023-03-19T02:19:56;100984.88;;;3.04;90.40
55675;BME280;41562;44.330;23.802;2023-03-19T02:22:29;100986.50;;;3.12;90.57
55675;BME280;41562;44.330;23.802;2023-03-19T02:25:10;100981.44;;;3.17;92.59
55675;BME280;41562;44.330;23.802;2023-03-19T02:27:39;100987.31;;;3.06;90.93
55675;BME280;41562;44.330;23.802;2023-03-19T02:30:27;100987.53;;;3.11;90.52
55675;BME280;41562;44.330;23.802;2023-03-19T02:32:55;100981.22;;;3.12;91.81
55675;BME280;41562;44.330;23.802;2023-03-19T02:35:22;100983.25;;;3.10;92.14
55675;BME280;41562;44.330;23.802;2023-03-19T02:37:50;100979.59;;;2.98;90.04
55675;BME280;41562;44.330;23.802;2023-03-19T02:40:26;100979.19;;;2.94;90.21
55675;BME280;41562;44.330;23.802;2023-03-19T02:42:55;100980.00;;;2.88;90.79
55675;BME280;41562;44.330;23.802;2023-03-19T02:45:27;100975.53;;;2.75;90.90
55675;BME280;41562;44.330;23.802;2023-03-19T02:47:56;100971.25;;;2.61;90.98
55675;BME280;41562;44.330;23.802;2023-03-19T02:50:23;100980.97;;;2.61;91.02
55675;BME280;41562;44.330;23.802;2023-03-19T02:52:50;100973.50;;;2.64;90.99
55675;BME280;41562;44.330;23.802;2023-03-19T02:55:18;100982.66;;;2.81;91.58
55675;BME280;41562;44.330;23.802;2023-03-19T02:57:46;100980.00;;;2.81;90.33
55675;BME280;41562;44.330;23.802;2023-03-19T03:00:14;100977.56;;;2.80;89.57
55675;BME280;41562;44.330;23.802;2023-03-19T03:02:42;100972.69;;;2.70;92.53
55675;BME280;41562;44.330;23.802;2023-03-19T03:05:09;100981.41;;;2.64;91.92
55675;BME280;41562;44.330;23.802;2023-03-19T03:07:36;100988.50;;;2.64;91.23
55675;BME280;41562;44.330;23.802;2023-03-19T03:10:04;100977.56;;;2.73;90.06
55675;BME280;41562;44.330;23.802;2023-03-19T03:12:31;100984.63;;;2.66;91.96
55675;BME280;41562;44.330;23.802;2023-03-19T03:14:59;100976.34;;;2.76;93.09
55675;BME280;41562;44.330;23.802;2023-03-19T03:17:27;100978.78;;;2.71;90.85
55675;BME280;41562;44.330;23.802;2023-03-19T03:19:54;100977.94;;;2.57;90.58
55675;BME280;41562;44.330;23.802;2023-03-19T03:22:22;100978.53;;;2.46;92.58
55675;BME280;41562;44.330;23.802;2023-03-19T03:24:49;100978.56;;;2.53;91.70
55675;BME280;41562;44.330;23.802;2023-03-19T03:27:16;100981.97;;;2.40;93.06
55675;BME280;41562;44.330;23.802;2023-03-19T03:29:44;100974.44;;;2.37;91.62
55675;BME280;41562;44.330;23.802;2023-03-19T03:32:12;100980.72;;;2.36;91.46
55675;BME280;41562;44.330;23.802;2023-03-19T03:34:39;100974.69;;;2.62;96.98
55675;BME280;41562;44.330;23.802;2023-03-19T03:37:07;100977.13;;;2.63;91.32
55675;BME280;41562;44.330;23.802;2023-03-19T03:39:34;100978.31;;;2.48;91.04
55675;BME280;41562;44.330;23.802;2023-03-19T03:42:02;100976.25;;;2.30;91.78
55675;BME280;41562;44.330;23.802;2023-03-19T03:44:30;100976.28;;;2.43;98.10
55675;BME280;41562;44.330;23.802;2023-03-19T03:46:57;100980.50;;;2.31;93.77
55675;BME280;41562;44.330;23.802;2023-03-19T03:49:24;100987.19;;;2.20;93.10
55675;BME280;41562;44.330;23.802;2023-03-19T03:51:52;100986.75;;;2.17;92.75
55675;BME280;41562;44.330;23.802;2023-03-19T03:54:20;100983.16;;;2.31;94.21
55675;BME280;41562;44.330;23.802;2023-03-19T03:56:47;100976.44;;;2.35;92.56
55675;BME280;41562;44.330;23.802;2023-03-19T03:59:15;100981.72;;;2.35;92.37
55675;BME280;41562;44.330;23.802;2023-03-19T04:01:42;100978.66;;;2.25;92.48
55675;BME280;41562;44.330;23.802;2023-03-19T04:04:09;100981.97;;;2.53;96.00
55675;BME280;41562;44.330;23.802;2023-03-19T04:06:37;100985.78;;;2.31;93.24
55675;BME280;41562;44.330;23.802;2023-03-19T04:09:04;100983.06;;;2.11;93.46
55675;BME280;41562;44.330;23.802;2023-03-19T04:11:33;100981.25;;;2.12;93.63
55675;BME280;41562;44.330;23.802;2023-03-19T04:14:00;100985.69;;;2.05;100.00
55675;BME280;41562;44.330;23.802;2023-03-19T04:16:28;100976.22;;;2.23;94.40
55675;BME280;41562;44.330;23.802;2023-03-19T04:18:55;100986.72;;;2.10;94.01
55675;BME280;41562;44.330;23.802;2023-03-19T04:21:22;100982.63;;;2.01;94.11
55675;BME280;41562;44.330;23.802;2023-03-19T04:23:50;100977.34;;;1.94;95.95
55675;BME280;41562;44.330;23.802;2023-03-19T04:26:18;100982.56;;;1.88;95.30
55675;BME280;41562;44.330;23.802;2023-03-19T04:28:46;100969.81;;;1.91;94.52
55675;BME280;41562;44.330;23.802;2023-03-19T04:31:17;100977.78;;;2.05;93.80
55675;BME280;41562;44.330;23.802;2023-03-19T04:33:44;100973.94;;;2.07;94.85
55675;BME280;41562;44.330;23.802;2023-03-19T04:36:12;100977.56;;;1.99;95.00
55675;BME280;41562;44.330;23.802;2023-03-19T04:38:40;100983.00;;;1.91;94.64
55675;BME280;41562;44.330;23.802;2023-03-19T04:41:08;100986.75;;;2.17;93.04
55675;BME280;41562;44.330;23.802;2023-03-19T04:43:35;100989.22;;;2.25;93.93
55675;BME280;41562;44.330;23.802;2023-03-19T04:46:03;100983.88;;;2.12;94.01
55675;BME280;41562;44.330;23.802;2023-03-19T04:48:33;100987.47;;;1.97;93.74
55675;BME280;41562;44.330;23.802;2023-03-19T04:51:01;100986.69;;;2.03;93.45
55675;BME280;41562;44.330;23.802;2023-03-19T04:53:29;100981.31;;;2.31;100.00
55675;BME280;41562;44.330;23.802;2023-03-19T04:56:02;100990.81;;;6.86;91.85
55675;BME280;41562;44.330;23.802;2023-03-19T04:58:30;100982.94;;;8.08;78.31
55675;BME280;41562;44.330;23.802;2023-03-19T05:00:58;100976.63;;;8.99;71.77
55675;BME280;41562;44.330;23.802;2023-03-19T05:03:25;100970.63;;;8.19;70.76
55675;BME280;41562;44.330;23.802;2023-03-19T05:05:53;100965.94;;;8.37;73.48
55675;BME280;41562;44.330;23.802;2023-03-19T05:08:21;100969.66;;;7.96;74.02
55675;BME280;41562;44.330;23.802;2023-03-19T05:10:49;100964.13;;;8.55;70.50
55675;BME280;41562;44.330;23.802;2023-03-19T05:13:17;100963.81;;;7.71;66.41
55675;BME280;41562;44.330;23.802;2023-03-19T05:15:51;100969.03;;;5.88;76.89
55675;BME280;41562;44.330;23.802;2023-03-19T05:18:20;100965.78;;;5.50;76.83
55675;BME280;41562;44.330;23.802;2023-03-19T05:20:48;100968.13;;;6.31;73.46
55675;BME280;41562;44.330;23.802;2023-03-19T05:23:16;100973.41;;;6.61;76.71
55675;BME280;41562;44.330;23.802;2023-03-19T05:25:44;100970.19;;;10.32;64.65
55675;BME280;41562;44.330;23.802;2023-03-19T05:28:12;100979.34;;;10.95;56.59
55675;BME280;41562;44.330;23.802;2023-03-19T05:30:39;100979.66;;;10.99;56.19
55675;BME280;41562;44.330;23.802;2023-03-19T05:33:07;100975.94;;;8.75;65.10
55675;BME280;41562;44.330;23.802;2023-03-19T05:35:36;100977.56;;;8.60;70.83
55675;BME280;41562;44.330;23.802;2023-03-19T05:38:03;100982.16;;;8.64;63.50
55675;BME280;41562;44.330;23.802;2023-03-19T05:40:31;100986.00;;;8.85;67.00
55675;BME280;41562;44.330;23.802;2023-03-19T05:43:01;100980.97;;;9.05;65.80
55675;BME280;41562;44.330;23.802;2023-03-19T05:45:29;100986.19;;;8.67;65.35
55675;BME280;41562;44.330;23.802;2023-03-19T05:47:56;100982.75;;;8.83;66.48
55675;BME280;41562;44.330;23.802;2023-03-19T05:50:23;100992.63;;;8.99;64.99
55675;BME280;41562;44.330;23.802;2023-03-19T05:52:51;100988.97;;;8.43;66.63
55675;BME280;41562;44.330;23.802;2023-03-19T05:55:18;101001.16;;;8.68;72.23
55675;BME280;41562;44.330;23.802;2023-03-19T05:57:46;101004.56;;;8.80;66.63
55675;BME280;41562;44.330;23.802;2023-03-19T06:00:13;100996.13;;;9.16;72.31
55675;BME280;41562;44.330;23.802;2023-03-19T06:02:42;100993.75;;;9.20;68.30
55675;BME280;41562;44.330;23.802;2023-03-19T06:05:10;100985.06;;;9.63;68.48
55675;BME280;41562;44.330;23.802;2023-03-19T06:07:41;100988.13;;;9.55;62.96
55675;BME280;41562;44.330;23.802;2023-03-19T06:10:10;100989.38;;;9.47;61.98
55675;BME280;41562;44.330;23.802;2023-03-19T06:12:43;100988.91;;;9.34;64.38
55675;BME280;41562;44.330;23.802;2023-03-19T06:15:10;100986.97;;;9.12;64.83
55675;BME280;41562;44.330;23.802;2023-03-19T06:17:38;100994.75;;;9.69;63.67
55675;BME280;41562;44.330;23.802;2023-03-19T06:20:05;100996.44;;;9.75;64.16
55675;BME280;41562;44.330;23.802;2023-03-19T06:22:33;100992.16;;;9.36;63.06
55675;BME280;41562;44.330;23.802;2023-03-19T06:25:00;101001.06;;;9.80;62.44
55675;BME280;41562;44.330;23.802;2023-03-19T06:27:28;101017.53;;;9.38;62.52
55675;BME280;41562;44.330;23.802;2023-03-19T06:29:55;101018.50;;;9.15;62.62
55675;BME280;41562;44.330;23.802;2023-03-19T06:32:22;101018.81;;;9.91;65.00
55675;BME280;41562;44.330;23.802;2023-03-19T06:34:50;101017.09;;;9.63;62.43
55675;BME280;41562;44.330;23.802;2023-03-19T06:37:17;101024.00;;;10.19;61.44
55675;BME280;41562;44.330;23.802;2023-03-19T06:39:45;101030.91;;;10.85;64.07
55675;BME280;41562;44.330;23.802;2023-03-19T06:42:15;101024.94;;;10.78;58.42
55675;BME280;41562;44.330;23.802;2023-03-19T06:44:42;101032.41;;;10.28;61.17
55675;BME280;41562;44.330;23.802;2023-03-19T06:47:10;101031.50;;;10.93;57.85
55675;BME280;41562;44.330;23.802;2023-03-19T06:49:39;101041.03;;;11.42;64.81
55675;BME280;41562;44.330;23.802;2023-03-19T06:52:07;101030.75;;;11.71;60.01
55675;BME280;41562;44.330;23.802;2023-03-19T06:54:34;101039.88;;;11.33;58.39
55675;BME280;41562;44.330;23.802;2023-03-19T06:57:04;101043.41;;;11.39;57.65
55675;BME280;41562;44.330;23.802;2023-03-19T06:59:32;101035.19;;;12.44;57.20
55675;BME280;41562;44.330;23.802;2023-03-19T07:02:00;101034.66;;;12.53;57.59
55675;BME280;41562;44.330;23.802;2023-03-19T07:04:28;101041.97;;;12.82;53.63
55675;BME280;41562;44.330;23.802;2023-03-19T07:06:56;101038.84;;;12.23;56.18
55675;BME280;41562;44.330;23.802;2023-03-19T07:09:23;101029.72;;;11.35;59.09
55675;BME280;41562;44.330;23.802;2023-03-19T07:11:51;101030.31;;;12.41;56.39
55675;BME280;41562;44.330;23.802;2023-03-19T07:14:18;101034.13;;;11.88;57.66
55675;BME280;41562;44.330;23.802;2023-03-19T07:16:45;101032.34;;;11.62;58.13
55675;BME280;41562;44.330;23.802;2023-03-19T07:19:13;101029.63;;;11.99;59.24
55675;BME280;41562;44.330;23.802;2023-03-19T07:21:41;101021.56;;;11.94;57.79
55675;BME280;41562;44.330;23.802;2023-03-19T07:24:08;101027.41;;;11.86;58.71
55675;BME280;41562;44.330;23.802;2023-03-19T07:26:35;101023.91;;;11.85;57.28
55675;BME280;41562;44.330;23.802;2023-03-19T07:29:03;101021.72;;;11.77;59.57
55675;BME280;41562;44.330;23.802;2023-03-19T07:31:30;101016.56;;;11.28;58.76
55675;BME280;41562;44.330;23.802;2023-03-19T07:33:57;101020.03;;;11.29;58.75
55675;BME280;41562;44.330;23.802;2023-03-19T07:36:25;101016.81;;;11.27;58.81
55675;BME280;41562;44.330;23.802;2023-03-19T07:38:52;101021.09;;;11.28;58.96
55675;BME280;41562;44.330;23.802;2023-03-19T07:41:23;101014.41;;;11.67;59.26
55675;BME280;41562;44.330;23.802;2023-03-19T07:43:52;101018.53;;;12.37;56.74
55675;BME280;41562;44.330;23.802;2023-03-19T07:46:20;101010.59;;;12.00;56.87
55675;BME280;41562;44.330;23.802;2023-03-19T07:48:47;101014.97;;;12.22;56.48
55675;BME280;41562;44.330;23.802;2023-03-19T07:51:15;101007.31;;;12.61;54.17
55675;BME280;41562;44.330;23.802;2023-03-19T07:53:45;101012.47;;;12.87;51.50
55675;BME280;41562;44.330;23.802;2023-03-19T07:56:13;101005.75;;;13.10;51.92
55675;BME280;41562;44.330;23.802;2023-03-19T07:58:41;101003.59;;;12.82;51.00
55675;BME280;41562;44.330;23.802;2023-03-19T08:01:09;101001.44;;;12.69;54.68
55675;BME280;41562;44.330;23.802;2023-03-19T08:03:36;101004.59;;;12.45;51.92
55675;BME280;41562;44.330;23.802;2023-03-19T08:06:04;101000.84;;;12.46;51.78
55675;BME280;41562;44.330;23.802;2023-03-19T08:08:35;101006.25;;;12.57;52.04
55675;BME280;41562;44.330;23.802;2023-03-19T08:11:03;101007.13;;;13.28;57.33
55675;BME280;41562;44.330;23.802;2023-03-19T08:13:31;101015.72;;;13.20;52.16
55675;BME280;41562;44.330;23.802;2023-03-19T08:15:58;101009.00;;;13.38;52.88
55675;BME280;41562;44.330;23.802;2023-03-19T08:18:26;101008.44;;;13.51;52.68
55675;BME280;41562;44.330;23.802;2023-03-19T08:20:53;101006.25;;;13.68;50.88
55675;BME280;41562;44.330;23.802;2023-03-19T08:23:21;101011.50;;;14.14;49.77
55675;BME280;41562;44.330;23.802;2023-03-19T08:25:48;101005.94;;;13.90;49.19
55675;BME280;41562;44.330;23.802;2023-03-19T08:28:15;101005.72;;;13.61;51.12
55675;BME280;41562;44.330;23.802;2023-03-19T08:30:46;101002.53;;;13.49;52.24
55675;BME280;41562;44.330;23.802;2023-03-19T08:33:15;101002.28;;;13.25;50.34
55675;BME280;41562;44.330;23.802;2023-03-19T08:35:42;101002.84;;;13.32;49.83
55675;BME280;41562;44.330;23.802;2023-03-19T08:38:09;100996.63;;;13.47;50.19
55675;BME280;41562;44.330;23.802;2023-03-19T08:40:37;101006.25;;;13.73;49.56
55675;BME280;41562;44.330;23.802;2023-03-19T08:43:04;100995.59;;;13.27;49.30
55675;BME280;41562;44.330;23.802;2023-03-19T08:45:32;100991.56;;;14.20;49.11
55675;BME280;41562;44.330;23.802;2023-03-19T08:47:59;100996.13;;;14.73;46.84
55675;BME280;41562;44.330;23.802;2023-03-19T08:50:27;100988.81;;;14.40;48.64
55675;BME280;41562;44.330;23.802;2023-03-19T08:52:57;100982.63;;;14.34;46.07
55675;BME280;41562;44.330;23.802;2023-03-19T08:55:25;100979.94;;;14.29;46.96
55675;BME280;41562;44.330;23.802;2023-03-19T08:57:53;100978.72;;;14.95;44.66
55675;BME280;41562;44.330;23.802;2023-03-19T09:00:20;100981.09;;;14.67;47.20
55675;BME280;41562;44.330;23.802;2023-03-19T09:02:48;100966.38;;;15.22;45.17
55675;BME280;41562;44.330;23.802;2023-03-19T09:05:18;100973.06;;;15.25;43.55
55675;BME280;41562;44.330;23.802;2023-03-19T09:07:45;100967.28;;;15.42;44.79
55675;BME280;41562;44.330;23.802;2023-03-19T09:10:12;100975.13;;;15.09;45.08
55675;BME280;41562;44.330;23.802;2023-03-19T09:12:40;100970.75;;;15.13;44.65
55675;BME280;41562;44.330;23.802;2023-03-19T09:15:08;100966.84;;;14.62;43.79
55675;BME280;41562;44.330;23.802;2023-03-19T09:17:35;100956.97;;;14.52;44.94
55675;BME280;41562;44.330;23.802;2023-03-19T09:20:04;100951.94;;;14.79;45.05
55675;BME280;41562;44.330;23.802;2023-03-19T09:22:31;100962.09;;;14.87;45.31
55675;BME280;41562;44.330;23.802;2023-03-19T09:25:01;100954.09;;;15.40;44.88
55675;BME280;41562;44.330;23.802;2023-03-19T09:27:29;100954.78;;;15.75;43.83
55675;BME280;41562;44.330;23.802;2023-03-19T09:29:56;100954.31;;;16.34;42.04
55675;BME280;41562;44.330;23.802;2023-03-19T09:32:27;100948.72;;;16.30;41.15
55675;BME280;41562;44.330;23.802;2023-03-19T09:34:54;100951.34;;;15.69;43.89
55675;BME280;41562;44.330;23.802;2023-03-19T09:37:22;100943.38;;;15.83;42.92
55675;BME280;41562;44.330;23.802;2023-03-19T09:39:50;100942.88;;;16.42;41.67
55675;BME280;41562;44.330;23.802;2023-03-19T09:45:35;100947.09;;;17.32;44.95
55675;BME280;41562;44.330;23.802;2023-03-19T09:48:10;100931.78;;;17.41;41.08
55675;BME280;41562;44.330;23.802;2023-03-19T09:50:38;100934.47;;;17.27;41.08
55675;BME280;41562;44.330;23.802;2023-03-19T09:56:15;100928.63;;;17.06;41.05
55675;BME280;41562;44.330;23.802;2023-03-19T09:58:45;100933.47;;;18.19;40.15
55675;BME280;41562;44.330;23.802;2023-03-19T10:01:22;100924.03;;;18.16;39.04
55675;BME280;41562;44.330;23.802;2023-03-19T10:04:07;100927.91;;;18.01;39.27
55675;BME280;41562;44.330;23.802;2023-03-19T10:06:43;100918.63;;;17.07;40.53
55675;BME280;41562;44.330;23.802;2023-03-19T10:22:53;100897.78;;;16.05;43.30
55675;BME280;41562;44.330;23.802;2023-03-19T10:25:27;100889.56;;;15.25;43.30
55675;BME280;41562;44.330;23.802;2023-03-19T10:27:59;100885.50;;;14.99;44.04
55675;BME280;41562;44.330;23.802;2023-03-19T10:30:37;100883.94;;;15.45;44.56
55675;BME280;41562;44.330;23.802;2023-03-19T10:33:21;100876.94;;;15.44;43.49
55675;BME280;41562;44.330;23.802;2023-03-19T10:35:59;100872.09;;;15.22;44.74
55675;BME280;41562;44.330;23.802;2023-03-19T10:38:33;100880.56;;;15.11;44.29
55675;BME280;41562;44.330;23.802;2023-03-19T10:44:36;100854.59;;;15.20;44.13
55675;BME280;41562;44.330;23.802;2023-03-19T10:47:12;100849.84;;;14.83;44.81
55675;BME280;41562;44.330;23.802;2023-03-19T10:49:41;100846.13;;;15.55;44.73
55675;BME280;41562;44.330;23.802;2023-03-19T10:54:53;100840.00;;;15.68;44.04
55675;BME280;41562;44.330;23.802;2023-03-19T10:57:29;100829.81;;;14.94;44.55
55675;BME280;41562;44.330;23.802;2023-03-19T11:00:05;100835.63;;;15.30;46.65
55675;BME280;41562;44.330;23.802;2023-03-19T11:02:34;100828.66;;;15.72;45.68
55675;BME280;41562;44.330;23.802;2023-03-19T11:05:07;100823.38;;;16.36;43.20
55675;BME280;41562;44.330;23.802;2023-03-19T11:07:48;100819.19;;;15.55;43.82
55675;BME280;41562;44.330;23.802;2023-03-19T11:10:19;100824.34;;;16.08;44.17
55675;BME280;41562;44.330;23.802;2023-03-19T11:12:53;100817.44;;;16.02;44.19
55675;BME280;41562;44.330;23.802;2023-03-19T11:15:32;100815.09;;;16.14;44.29
55675;BME280;41562;44.330;23.802;2023-03-19T11:18:20;100808.81;;;16.00;44.31
55675;BME280;41562;44.330;23.802;2023-03-19T11:20:57;100814.19;;;16.37;49.19
55675;BME280;41562;44.330;23.802;2023-03-19T11:23:30;100806.50;;;16.91;43.48
55675;BME280;41562;44.330;23.802;2023-03-19T11:26:00;100802.31;;;16.98;44.12
55675;BME280;41562;44.330;23.802;2023-03-19T11:28:31;100793.63;;;16.55;45.95
55675;BME280;41562;44.330;23.802;2023-03-19T11:31:25;100798.38;;;16.63;47.03
55675;BME280;41562;44.330;23.802;2023-03-19T11:36:56;100781.81;;;16.19;43.87
55675;BME280;41562;44.330;23.802;2023-03-19T11:40:11;100770.22;;;16.50;44.28
55675;BME280;41562;44.330;23.802;2023-03-19T11:42:49;100779.97;;;16.33;43.51
55675;BME280;41562;44.330;23.802;2023-03-19T11:45:29;100770.06;;;16.61;43.21
55675;BME280;41562;44.330;23.802;2023-03-19T11:50:52;100757.41;;;16.10;49.29
55675;BME280;41562;44.330;23.802;2023-03-19T11:56:17;100757.25;;;15.26;45.91
55675;BME280;41562;44.330;23.802;2023-03-19T12:04:45;100745.34;;;16.21;46.89
55675;BME280;41562;44.330;23.802;2023-03-19T12:07:43;100741.31;;;16.05;47.05
55675;BME280;41562;44.330;23.802;2023-03-19T12:26:06;100716.94;;;15.40;46.74
55675;BME280;41562;44.330;23.802;2023-03-19T12:28:41;100719.63;;;15.40;47.48
55675;BME280;41562;44.330;23.802;2023-03-19T12:32:33;100706.41;;;15.95;47.20
55675;BME280;41562;44.330;23.802;2023-03-19T12:35:12;100707.53;;;16.07;45.35
55675;BME280;41562;44.330;23.802;2023-03-19T12:37:57;100699.22;;;15.72;47.97
55675;BME280;41562;44.330;23.802;2023-03-19T12:40:37;100706.16;;;15.78;54.72
55675;BME280;41562;44.330;23.802;2023-03-19T12:43:49;100695.38;;;15.59;47.70
55675;BME280;41562;44.330;23.802;2023-03-19T12:46:32;100698.81;;;16.29;50.71
55675;BME280;41562;44.330;23.802;2023-03-19T12:51:43;100693.28;;;16.80;48.98
55675;BME280;41562;44.330;23.802;2023-03-19T12:56:45;100683.84;;;17.05;46.21
55675;BME280;41562;44.330;23.802;2023-03-19T13:02:41;100678.53;;;17.00;44.86
55675;BME280;41562;44.330;23.802;2023-03-19T13:10:19;100673.81;;;16.51;45.38
55675;BME280;41562;44.330;23.802;2023-03-19T13:12:49;100668.28;;;16.61;47.21
55675;BME280;41562;44.330;23.802;2023-03-19T13:15:25;100667.47;;;16.88;44.19
55675;BME280;41562;44.330;23.802;2023-03-19T13:23:42;100650.53;;;16.41;46.95
55675;BME280;41562;44.330;23.802;2023-03-19T13:26:11;100648.41;;;16.11;46.40
55675;BME280;41562;44.330;23.802;2023-03-19T13:29:02;100638.50;;;16.20;48.20
55675;BME280;41562;44.330;23.802;2023-03-19T13:31:35;100634.91;;;15.65;49.90
55675;BME280;41562;44.330;23.802;2023-03-19T13:34:19;100630.06;;;15.94;47.23
55675;BME280;41562;44.330;23.802;2023-03-19T13:36:53;100628.81;;;15.59;48.25
55675;BME280;41562;44.330;23.802;2023-03-19T13:39:25;100627.88;;;15.96;48.08
55675;BME280;41562;44.330;23.802;2023-03-19T13:42:07;100623.97;;;15.89;50.32
55675;BME280;41562;44.330;23.802;2023-03-19T13:45:00;100620.03;;;15.67;48.06
55675;BME280;41562;44.330;23.802;2023-03-19T13:50:08;100602.50;;;15.33;47.46
55675;BME280;41562;44.330;23.802;2023-03-19T13:55:32;100605.47;;;15.31;48.66
55675;BME280;41562;44.330;23.802;2023-03-19T14:03:25;100587.13;;;15.33;49.00
55675;BME280;41562;44.330;23.802;2023-03-19T14:05:55;100584.63;;;15.23;49.29
55675;BME280;41562;44.330;23.802;2023-03-19T14:08:26;100584.25;;;15.11;49.38
55675;BME280;41562;44.330;23.802;2023-03-19T14:10:57;100579.81;;;15.20;49.97
55675;BME280;41562;44.330;23.802;2023-03-19T14:13:40;100574.41;;;15.20;49.49
55675;BME280;41562;44.330;23.802;2023-03-19T14:16:18;100575.81;;;15.17;49.65
55675;BME280;41562;44.330;23.802;2023-03-19T14:18:56;100578.34;;;15.09;49.59
55675;BME280;41562;44.330;23.802;2023-03-19T14:27:27;100558.19;;;15.06;49.33
55675;BME280;41562;44.330;23.802;2023-03-19T14:29:57;100563.22;;;15.13;50.18
55675;BME280;41562;44.330;23.802;2023-03-19T14:32:33;100570.63;;;15.21;50.46
55675;BME280;41562;44.330;23.802;2023-03-19T14:35:05;100563.59;;;15.57;48.70